createdAt,value
2019-05-02T00:00:21.396Z,10.30
2019-05-02T00:02:52.421Z,10.30
2019-05-02T00:05:27.462Z,10.20
2019-05-02T00:07:58.457Z,10.30
2019-05-02T00:10:29.110Z,10.40
2019-05-02T00:12:59.706Z,10.30
2019-05-02T00:15:33.129Z,10.20
2019-05-02T00:18:02.767Z,10.20
2019-05-02T00:20:33.298Z,10.20
2019-05-02T00:23:03.946Z,10.10
2019-05-02T00:25:34.533Z,10.00
2019-05-02T00:28:07.687Z,10.00
2019-05-02T00:30:37.671Z,10.00
2019-05-02T00:33:10.455Z,9.90
2019-05-02T00:35:40.968Z,9.80
2019-05-02T00:38:12.755Z,9.80
2019-05-02T00:40:46.096Z,9.80
2019-05-02T00:43:15.296Z,9.80
2019-05-02T00:45:45.767Z,9.80
2019-05-02T00:48:25.026Z,9.80
2019-05-02T00:50:55.505Z,9.80
2019-05-02T00:53:26.363Z,9.80
2019-05-02T00:55:56.834Z,9.90
2019-05-02T00:58:31.941Z,9.90
2019-05-02T01:01:29.667Z,9.80
2019-05-02T01:04:00.817Z,9.80
2019-05-02T01:06:31.412Z,9.80
2019-05-02T01:09:05.869Z,9.70
2019-05-02T01:11:35.229Z,9.70
2019-05-02T01:14:09.447Z,9.70
2019-05-02T01:16:39.915Z,9.70
2019-05-02T01:19:12.218Z,9.60
2019-05-02T01:21:43.039Z,9.70
2019-05-02T01:24:13.707Z,9.70
2019-05-02T01:26:53.451Z,9.70
2019-05-02T01:29:29.844Z,9.70
2019-05-02T01:32:30.024Z,9.70
2019-05-02T01:35:22.208Z,9.60
2019-05-02T01:38:17.441Z,9.60
2019-05-02T01:40:53.095Z,9.50
2019-05-02T01:43:32.275Z,9.50
2019-05-02T01:46:02.790Z,9.60
2019-05-02T01:48:33.254Z,9.60
2019-05-02T01:51:04.267Z,9.50
2019-05-02T01:53:35.920Z,9.40
2019-05-02T01:56:06.383Z,9.30
2019-05-02T01:58:36.875Z,9.40
2019-05-02T02:01:07.342Z,9.30
2019-05-02T02:03:40.660Z,9.30
2019-05-02T02:06:10.256Z,9.30
2019-05-02T02:08:40.779Z,9.30
2019-05-02T02:11:11.298Z,9.40
2019-05-02T02:13:41.822Z,9.50
2019-05-02T02:16:12.307Z,9.40
2019-05-02T02:18:49.298Z,9.40
2019-05-02T02:21:38.558Z,9.30
2019-05-02T02:24:13.144Z,9.30
2019-05-02T02:26:48.114Z,9.30
2019-05-02T02:29:15.946Z,9.30
2019-05-02T02:31:48.564Z,9.40
2019-05-02T02:34:21.255Z,9.40
2019-05-02T02:36:50.688Z,9.30
2019-05-02T02:39:21.182Z,9.30
2019-05-02T02:41:53.994Z,9.30
2019-05-02T02:44:48.921Z,9.20
2019-05-02T02:47:21.080Z,9.30
2019-05-02T02:49:55.755Z,9.20
2019-05-02T02:55:00.871Z,9.20
2019-05-02T02:57:42.611Z,9.20
2019-05-02T03:00:27.559Z,9.20
2019-05-02T03:03:09.896Z,9.30
2019-05-02T03:09:31.629Z,9.30
2019-05-02T03:15:20.934Z,9.30
2019-05-02T03:18:02.415Z,9.40
2019-05-02T03:20:45.063Z,9.40
2019-05-02T03:26:15.395Z,9.40
2019-05-02T03:32:29.891Z,9.50
2019-05-02T03:34:53.751Z,9.50
2019-05-02T03:37:34.996Z,9.40
2019-05-02T03:40:17.324Z,9.40
2019-05-02T03:43:27.589Z,9.30
2019-05-02T03:46:13.411Z,9.40
2019-05-02T03:49:06.089Z,9.40
2019-05-02T03:51:36.368Z,9.50
2019-05-02T03:54:20.128Z,9.50
2019-05-02T03:57:02.891Z,9.60
2019-05-02T03:59:38.647Z,9.60
2019-05-02T04:02:24.574Z,9.70
2019-05-02T04:08:20.741Z,9.60
2019-05-02T04:11:01.827Z,9.70
2019-05-02T04:16:27.409Z,9.80
2019-05-02T04:19:34.223Z,9.80
2019-05-02T04:22:12.577Z,9.90
2019-05-02T04:24:56.903Z,10.00
2019-05-02T04:27:39.727Z,10.00
2019-05-02T04:30:22.221Z,10.00
2019-05-02T04:35:36.380Z,10.00
2019-05-02T04:38:39.043Z,10.00
2019-05-02T04:41:31.696Z,10.00
2019-05-02T04:44:13.387Z,10.10
2019-05-02T04:47:02.590Z,10.10
2019-05-02T04:49:39.888Z,10.10
2019-05-02T04:52:22.547Z,10.20
2019-05-02T04:55:14.661Z,10.20
2019-05-02T04:57:50.936Z,10.20
2019-05-02T05:00:32.556Z,10.10
2019-05-02T05:03:17.229Z,10.20
2019-05-02T05:08:41.261Z,10.30
2019-05-02T05:11:41.843Z,10.30
2019-05-02T05:14:23.696Z,10.30
2019-05-02T05:17:07.874Z,10.20
2019-05-02T05:19:49.006Z,10.20
2019-05-02T05:22:36.477Z,10.10
2019-05-02T05:25:21.341Z,10.10
2019-05-02T05:28:20.499Z,10.20
2019-05-02T05:34:37.971Z,10.30
2019-05-02T05:37:20.643Z,10.30
2019-05-02T05:40:05.673Z,10.40
2019-05-02T05:46:18.492Z,10.40
2019-05-02T05:48:48.991Z,10.50
2019-05-02T05:51:38.600Z,10.50
2019-05-02T05:54:47.384Z,10.40
2019-05-02T05:57:49.999Z,10.50
2019-05-02T06:00:55.350Z,10.40
2019-05-02T06:03:54.287Z,10.40
2019-05-02T06:10:13.246Z,10.40
2019-05-02T06:16:59.180Z,10.70
2019-05-02T06:23:10.423Z,10.80
2019-05-02T06:26:13.758Z,10.90
2019-05-02T06:40:14.331Z,10.80
2019-05-02T06:45:40.211Z,11.00
2019-05-02T06:48:22.348Z,11.00
2019-05-02T06:51:04.647Z,11.00
2019-05-02T06:53:48.789Z,11.00
2019-05-02T06:59:58.257Z,11.10
2019-05-02T07:02:58.413Z,11.10
2019-05-02T07:09:17.936Z,11.10
2019-05-02T07:15:59.491Z,11.40
2019-05-02T07:19:00.891Z,11.40
2019-05-02T07:25:08.867Z,11.70
2019-05-02T07:31:13.917Z,12.50
2019-05-02T07:37:03.043Z,13.00
2019-05-02T07:39:45.682Z,13.00
2019-05-02T07:42:46.964Z,12.90
2019-05-02T07:48:59.396Z,12.50
2019-05-02T08:09:39.238Z,11.90
2019-05-02T08:12:39.451Z,11.80
2019-05-02T08:19:01.297Z,11.80
2019-05-02T08:25:12.082Z,11.80
2019-05-02T08:31:51.214Z,11.70
2019-05-02T08:37:35.253Z,11.60
2019-05-02T08:57:25.478Z,12.70
2019-05-02T09:04:05.390Z,13.80
2019-05-02T09:06:48.435Z,14.00
2019-05-02T09:09:30.492Z,14.30
2019-05-02T09:12:42.342Z,14.60
2019-05-02T09:19:26.379Z,14.50
2019-05-02T09:22:07.621Z,14.30
2019-05-02T09:24:52.014Z,14.20
2019-05-02T09:27:53.314Z,13.90
2019-05-02T09:30:57.350Z,14.00
2019-05-02T09:33:45.218Z,14.20
2019-05-02T09:36:22.646Z,14.10
2019-05-02T09:39:34.699Z,13.90
2019-05-02T09:42:32.520Z,13.50
2019-05-02T09:45:37.290Z,12.80
2019-05-02T09:48:35.876Z,12.40
2019-05-02T09:51:36.640Z,12.00
2019-05-02T09:54:42.539Z,11.70
2019-05-02T09:57:42.724Z,11.50
2019-05-02T10:00:48.402Z,11.60
2019-05-02T10:06:59.684Z,11.90
2019-05-02T10:10:06.738Z,12.10
2019-05-02T10:13:08.631Z,12.40
2019-05-02T10:16:09.777Z,12.60
2019-05-02T10:19:11.473Z,12.40
2019-05-02T10:22:26.561Z,12.30
2019-05-02T10:29:09.120Z,12.20
2019-05-02T10:32:16.747Z,11.70
2019-05-02T10:41:39.777Z,10.90
2019-05-02T10:44:52.045Z,10.70
2019-05-02T10:50:38.375Z,10.40
2019-05-02T10:53:21.782Z,10.40
2019-05-02T10:59:05.899Z,10.40
2019-05-02T11:02:07.021Z,10.50
2019-05-02T11:08:36.859Z,10.40
2019-05-02T11:11:39.064Z,10.30
2019-05-02T11:20:37.383Z,10.70
2019-05-02T11:23:38.513Z,11.10
2019-05-02T11:29:57.290Z,11.50
2019-05-02T11:36:41.520Z,11.40
2019-05-02T11:39:48.505Z,11.60
2019-05-02T11:42:52.583Z,11.70
2019-05-02T11:46:01.418Z,11.80
2019-05-02T11:58:57.867Z,12.40
2019-05-02T12:05:16.495Z,12.50
2019-05-02T12:14:56.615Z,12.10
2019-05-02T12:21:19.272Z,12.00
2019-05-02T12:31:08.055Z,12.20
2019-05-02T12:34:09.504Z,12.30
2019-05-02T12:43:32.822Z,12.20
2019-05-02T12:49:43.754Z,11.70
2019-05-02T12:52:44.519Z,11.80
2019-05-02T12:55:46.007Z,11.90
2019-05-02T13:01:57.518Z,12.30
2019-05-02T13:04:59.495Z,12.10
2019-05-02T13:08:02.536Z,12.00
2019-05-02T13:11:06.644Z,11.70
2019-05-02T13:20:29.355Z,11.30
2019-05-02T13:23:12.793Z,11.30
2019-05-02T13:26:24.961Z,11.30
2019-05-02T13:29:03.861Z,11.30
2019-05-02T13:32:08.825Z,11.50
2019-05-02T13:35:14.603Z,11.70
2019-05-02T13:38:02.759Z,12.10
2019-05-02T13:44:14.179Z,12.60
2019-05-02T13:50:03.295Z,13.20
2019-05-02T13:53:06.455Z,13.30
2019-05-02T13:59:13.042Z,13.50
2019-05-02T14:01:59.340Z,13.70
2019-05-02T14:04:41.711Z,13.80
2019-05-02T14:11:19.194Z,14.00
2019-05-02T14:14:39.871Z,14.10
2019-05-02T14:20:49.630Z,13.90
2019-05-02T14:23:55.907Z,13.60
2019-05-02T14:36:11.691Z,14.00
2019-05-02T14:42:29.735Z,14.20
2019-05-02T14:45:27.239Z,14.20
2019-05-02T14:51:28.615Z,14.30
2019-05-02T14:54:29.728Z,14.40
2019-05-02T14:57:32.525Z,14.60
2019-05-02T15:03:42.382Z,14.90
2019-05-02T15:06:47.454Z,15.00
2019-05-02T15:09:52.551Z,15.10
2019-05-02T15:28:30.585Z,14.90
2019-05-02T15:34:17.013Z,15.00
2019-05-02T15:42:49.044Z,14.30
2019-05-02T15:45:56.212Z,14.00
2019-05-02T15:48:57.252Z,13.40
2019-05-02T15:51:59.755Z,13.10
2019-05-02T16:00:41.901Z,12.70
2019-05-02T16:06:38.071Z,12.20
2019-05-02T16:09:21.590Z,11.90
2019-05-02T16:12:05.139Z,11.80
2019-05-02T16:15:13.170Z,11.80
2019-05-02T16:18:09.334Z,11.70
2019-05-02T16:27:11.553Z,11.20
2019-05-02T16:30:44.223Z,11.00
2019-05-02T16:33:38.623Z,11.00
2019-05-02T16:46:46.412Z,10.10
2019-05-02T16:56:03.019Z,10.30
2019-05-02T17:01:27.197Z,10.70
2019-05-02T17:11:15.834Z,10.70
2019-05-02T17:13:58.155Z,10.60
2019-05-02T17:16:47.079Z,10.60
2019-05-02T17:19:46.384Z,10.50
2019-05-02T17:25:32.208Z,9.90
2019-05-02T17:28:14.242Z,9.80
2019-05-02T17:30:56.962Z,9.70
2019-05-02T17:33:58.151Z,9.60
2019-05-02T17:43:45.343Z,9.60
2019-05-02T17:46:50.796Z,9.60
2019-05-02T17:49:36.969Z,9.60
2019-05-02T17:55:40.294Z,9.60
2019-05-02T17:58:19.055Z,9.60
2019-05-02T18:04:35.528Z,9.30
2019-05-02T18:10:21.909Z,9.20
2019-05-02T18:13:00.017Z,9.10
2019-05-02T18:15:46.003Z,9.00
2019-05-02T18:18:28.211Z,8.90
2019-05-02T18:21:30.168Z,8.90
2019-05-02T18:24:30.440Z,8.80
2019-05-02T18:27:14.144Z,8.60
2019-05-02T18:33:29.039Z,8.50
2019-05-02T18:36:10.771Z,8.40
2019-05-02T18:45:58.115Z,8.20
2019-05-02T18:48:42.093Z,8.10
2019-05-02T18:58:27.560Z,7.90
2019-05-02T19:01:15.968Z,7.90
2019-05-02T19:07:54.827Z,7.70
2019-05-02T19:17:57.434Z,7.40
2019-05-02T20:47:59.316Z,6.10
2019-05-02T20:50:42.421Z,6.10
2019-05-02T20:57:02.560Z,6.10
2019-05-02T20:59:45.563Z,6.00
2019-05-02T21:06:02.971Z,5.90
2019-05-02T21:12:24.635Z,5.70
2019-05-02T21:15:07.099Z,5.60
2019-05-02T21:17:50.128Z,5.50
2019-05-02T21:23:17.583Z,5.50
2019-05-02T21:26:18.807Z,5.40
2019-05-02T21:31:51.997Z,5.40
2019-05-02T21:34:37.671Z,5.30
2019-05-02T21:37:19.799Z,5.30
2019-05-02T21:43:25.752Z,5.20
2019-05-02T21:53:17.643Z,5.00
2019-05-02T21:56:26.095Z,5.00
2019-05-02T21:59:27.707Z,5.00
2019-05-02T22:02:17.895Z,4.90
2019-05-02T22:05:03.471Z,4.90
2019-05-02T22:11:12.348Z,4.80
2019-05-02T22:13:43.296Z,4.70
2019-05-02T22:16:16.738Z,4.70
2019-05-02T22:18:47.288Z,4.70
2019-05-02T22:21:17.726Z,4.60
2019-05-02T22:23:48.226Z,4.60
2019-05-02T22:26:18.682Z,4.60
2019-05-02T22:28:49.171Z,4.50
2019-05-02T22:31:19.635Z,4.50
2019-05-02T22:33:52.707Z,4.50
2019-05-02T22:36:24.525Z,4.50
2019-05-02T22:39:08.562Z,4.40
2019-05-02T22:41:39.047Z,4.40
2019-05-02T22:44:09.663Z,4.40
2019-05-02T22:46:42.864Z,4.30
2019-05-02T22:49:14.960Z,4.30
2019-05-02T22:51:45.695Z,4.30
2019-05-02T22:54:26.766Z,4.20
2019-05-02T22:56:48.230Z,4.20
2019-05-02T22:59:18.710Z,4.20
2019-05-02T23:01:49.186Z,4.20
2019-05-02T23:04:23.315Z,4.10
2019-05-02T23:06:52.916Z,4.10
2019-05-02T23:09:23.689Z,4.10
2019-05-02T23:11:54.338Z,4.10
2019-05-02T23:14:24.899Z,4.10
2019-05-02T23:16:55.383Z,4.00
2019-05-02T23:19:25.930Z,4.10
2019-05-02T23:21:56.419Z,4.10
2019-05-02T23:24:38.650Z,4.10
2019-05-02T23:27:24.386Z,4.10
2019-05-02T23:29:54.955Z,4.10
2019-05-02T23:32:25.437Z,4.00
2019-05-02T23:34:55.938Z,4.00
2019-05-02T23:37:26.464Z,4.00
2019-05-02T23:39:57.067Z,4.00
2019-05-02T23:42:27.515Z,4.00
2019-05-02T23:44:58.007Z,4.00
2019-05-02T23:47:28.515Z,4.00
2019-05-02T23:49:58.994Z,4.10
2019-05-02T23:52:31.548Z,4.10
2019-05-02T23:55:03.023Z,4.10
2019-05-02T23:57:33.542Z,4.10
